createdAt,value
2023-03-20T00:01:30.006Z,75.60
2023-03-20T00:03:57.567Z,75.70
2023-03-20T00:06:27.235Z,75.90
2023-03-20T00:08:55.291Z,76.20
2023-03-20T00:11:30.659Z,75.90
2023-03-20T00:14:00.608Z,76.00
2023-03-20T00:16:32.846Z,75.70
2023-03-20T00:18:59.524Z,75.30
2023-03-20T00:21:27.291Z,75.70
2023-03-20T00:23:55.383Z,75.10
2023-03-20T00:26:28.326Z,75.30
2023-03-20T00:28:56.324Z,75.40
2023-03-20T00:31:28.622Z,75.20
2023-03-20T00:33:58.722Z,75.20
2023-03-20T00:36:25.530Z,75.60
2023-03-20T00:38:52.737Z,75.30
2023-03-20T00:41:28.501Z,75.60
2023-03-20T00:44:01.065Z,75.60
2023-03-20T00:46:28.042Z,75.70
2023-03-20T00:48:55.888Z,76.10
2023-03-20T00:51:22.822Z,75.90
2023-03-20T00:53:49.524Z,75.70
2023-03-20T00:56:36.397Z,76.00
2023-03-20T00:59:04.143Z,75.80
2023-03-20T01:01:32.052Z,75.80
2023-03-20T01:04:01.847Z,75.60
2023-03-20T01:06:29.639Z,75.60
2023-03-20T01:08:57.678Z,75.90
2023-03-20T01:11:25.729Z,76.10
2023-03-20T01:13:52.545Z,76.00
2023-03-20T01:16:25.575Z,76.00
2023-03-20T01:18:52.996Z,76.10
2023-03-20T01:21:20.633Z,75.70
2023-03-20T01:23:49.221Z,75.60
2023-03-20T01:26:32.890Z,75.60
2023-03-20T01:28:59.640Z,76.20
2023-03-20T01:31:27.265Z,75.90
2023-03-20T01:33:54.126Z,75.70
2023-03-20T01:36:23.126Z,75.20
2023-03-20T01:38:56.058Z,75.40
2023-03-20T01:41:25.390Z,75.30
2023-03-20T01:43:53.096Z,75.10
2023-03-20T01:46:31.762Z,75.30
2023-03-20T01:49:19.630Z,75.40
2023-03-20T01:51:48.779Z,75.50
2023-03-20T01:54:23.861Z,75.00
2023-03-20T01:57:10.229Z,75.30
2023-03-20T02:00:04.091Z,74.90
2023-03-20T02:02:43.810Z,75.30
2023-03-20T02:05:13.924Z,74.90
2023-03-20T02:07:41.000Z,74.40
2023-03-20T02:10:14.390Z,74.90
2023-03-20T02:12:49.048Z,75.20
2023-03-20T02:15:27.257Z,75.10
2023-03-20T02:18:05.076Z,75.10
2023-03-20T02:20:41.426Z,75.20
2023-03-20T02:23:26.958Z,74.90
2023-03-20T02:26:06.668Z,74.60
2023-03-20T02:29:01.016Z,74.60
2023-03-20T02:31:54.142Z,73.80
2023-03-20T02:34:42.683Z,73.80
2023-03-20T02:37:49.287Z,73.50
2023-03-20T02:40:40.653Z,73.50
2023-03-20T02:43:22.792Z,73.30
2023-03-20T02:46:11.677Z,73.10
2023-03-20T02:48:48.707Z,73.40
2023-03-20T02:51:28.237Z,73.30
2023-03-20T02:54:33.571Z,73.60
2023-03-20T02:57:09.018Z,73.30
2023-03-20T02:59:58.162Z,73.50
2023-03-20T03:02:38.876Z,73.20
2023-03-20T03:05:19.176Z,73.00
2023-03-20T03:07:49.882Z,73.20
2023-03-20T03:10:51.863Z,73.90
2023-03-20T03:13:23.026Z,73.70
2023-03-20T03:15:55.488Z,73.20
2023-03-20T03:18:26.133Z,73.30
2023-03-20T03:20:58.289Z,73.20
2023-03-20T03:23:32.619Z,72.80
2023-03-20T03:26:02.343Z,72.60
2023-03-20T03:28:43.085Z,73.10
2023-03-20T03:31:13.752Z,74.00
2023-03-20T03:33:43.419Z,73.90
2023-03-20T03:36:25.442Z,74.40
2023-03-20T03:39:21.038Z,75.40
2023-03-20T03:42:11.406Z,76.70
2023-03-20T03:44:59.960Z,77.70
2023-03-20T03:47:38.317Z,78.50
2023-03-20T03:50:16.938Z,78.30
2023-03-20T03:52:46.433Z,77.80
2023-03-20T03:55:21.401Z,77.70
2023-03-20T03:58:06.087Z,77.00
2023-03-20T04:00:34.937Z,76.90
2023-03-20T04:03:06.126Z,76.30
2023-03-20T04:05:36.914Z,76.20
2023-03-20T04:08:06.228Z,75.50
2023-03-20T04:10:33.780Z,75.80
2023-03-20T04:13:00.536Z,75.40
2023-03-20T04:15:27.907Z,75.40
2023-03-20T04:17:55.618Z,75.40
2023-03-20T04:20:22.905Z,75.70
2023-03-20T04:22:50.844Z,75.60
2023-03-20T04:25:24.177Z,75.30
2023-03-20T04:27:53.916Z,75.20
2023-03-20T04:30:32.144Z,75.30
2023-03-20T04:33:17.462Z,75.50
2023-03-20T04:35:54.126Z,76.00
2023-03-20T04:38:21.593Z,76.00
2023-03-20T04:40:49.210Z,75.60
2023-03-20T04:43:16.591Z,75.30
2023-03-20T04:45:43.588Z,75.10
2023-03-20T04:48:10.563Z,74.90
2023-03-20T04:50:37.538Z,74.40
2023-03-20T04:53:05.710Z,74.60
2023-03-20T04:55:33.161Z,74.70
2023-03-20T04:57:59.918Z,74.20
2023-03-20T05:00:27.934Z,74.20
2023-03-20T05:02:54.600Z,74.40
2023-03-20T05:05:21.383Z,74.10
2023-03-20T05:07:48.227Z,74.30
2023-03-20T05:10:22.614Z,74.40
2023-03-20T05:12:57.766Z,74.30
2023-03-20T05:15:27.184Z,74.40
2023-03-20T05:18:12.266Z,75.10
2023-03-20T05:20:57.608Z,74.80
2023-03-20T05:23:31.254Z,74.70
2023-03-20T05:26:25.358Z,74.40
2023-03-20T05:28:54.958Z,74.10
2023-03-20T05:31:31.838Z,73.90
2023-03-20T05:34:05.754Z,73.90
2023-03-20T05:37:04.962Z,73.60
2023-03-20T05:39:43.218Z,73.70
2023-03-20T05:42:36.026Z,74.20
2023-03-20T05:45:24.878Z,74.80
2023-03-20T05:48:10.330Z,75.00
2023-03-20T05:50:56.249Z,74.80
2023-03-20T05:53:37.059Z,75.40
2023-03-20T05:56:22.405Z,75.60
2023-03-20T05:59:12.702Z,76.40
2023-03-20T06:01:50.041Z,76.30
2023-03-20T06:04:24.743Z,76.40
2023-03-20T06:07:12.702Z,77.00
2023-03-20T06:09:42.684Z,77.10
2023-03-20T06:12:12.922Z,77.10
2023-03-20T06:14:40.361Z,76.80
2023-03-20T06:17:08.756Z,76.00
2023-03-20T06:19:35.657Z,76.90
2023-03-20T06:22:02.870Z,77.20
2023-03-20T06:24:31.366Z,77.90
2023-03-20T06:26:59.129Z,78.30
2023-03-20T06:29:26.770Z,78.40
2023-03-20T06:31:57.199Z,78.70
2023-03-20T06:34:28.632Z,78.60
2023-03-20T06:36:57.008Z,78.30
2023-03-20T06:39:24.040Z,78.60
2023-03-20T06:41:51.015Z,78.50
2023-03-20T06:44:21.976Z,78.80
2023-03-20T06:47:14.575Z,79.40
2023-03-20T06:49:44.593Z,79.70
2023-03-20T06:52:17.339Z,78.90
2023-03-20T06:54:46.940Z,77.90
2023-03-20T06:57:15.408Z,76.60
2023-03-20T06:59:43.476Z,76.80
2023-03-20T07:02:11.650Z,76.60
2023-03-20T07:04:39.084Z,76.10
2023-03-20T07:07:05.902Z,75.40
2023-03-20T07:09:34.689Z,75.10
2023-03-20T07:12:02.329Z,74.60
2023-03-20T07:14:31.204Z,74.20
2023-03-20T07:17:02.313Z,73.60
2023-03-20T07:19:29.119Z,73.70
2023-03-20T07:22:03.597Z,73.90
2023-03-20T07:24:36.088Z,73.70
2023-03-20T07:27:03.494Z,74.80
2023-03-20T07:29:31.706Z,74.90
2023-03-20T07:32:00.994Z,74.30
2023-03-20T07:34:32.576Z,74.50
2023-03-20T07:37:00.660Z,74.60
2023-03-20T07:39:28.291Z,74.30
2023-03-20T07:42:16.138Z,73.80
2023-03-20T07:44:52.984Z,73.80
2023-03-20T07:47:20.157Z,74.60
2023-03-20T07:49:46.824Z,73.50
2023-03-20T07:52:13.557Z,72.10
2023-03-20T07:54:40.491Z,72.70
2023-03-20T07:57:07.255Z,72.10
2023-03-20T07:59:33.957Z,71.80
2023-03-20T08:02:00.611Z,70.60
2023-03-20T08:04:27.335Z,70.70
2023-03-20T08:06:54.175Z,70.30
2023-03-20T08:09:21.035Z,70.70
2023-03-20T08:11:47.750Z,71.90
2023-03-20T08:14:14.429Z,71.80
2023-03-20T08:16:41.384Z,72.10
2023-03-20T08:19:08.120Z,71.50
2023-03-20T08:21:34.808Z,71.70
2023-03-20T08:24:01.629Z,72.70
2023-03-20T08:26:28.368Z,72.50
2023-03-20T08:28:55.219Z,71.60
2023-03-20T08:31:22.016Z,72.80
2023-03-20T08:33:48.967Z,70.30
2023-03-20T08:36:17.096Z,68.80
2023-03-20T08:38:43.879Z,69.10
2023-03-20T08:41:10.746Z,70.60
2023-03-20T08:43:37.655Z,70.80
2023-03-20T08:46:05.415Z,70.70
2023-03-20T08:48:32.404Z,70.60
2023-03-20T08:50:59.123Z,69.40
2023-03-20T08:53:25.896Z,68.10
2023-03-20T08:55:53.582Z,68.70
2023-03-20T08:58:21.386Z,68.00
2023-03-20T09:00:48.613Z,68.70
2023-03-20T09:03:17.601Z,69.70
2023-03-20T09:05:46.030Z,69.00
2023-03-20T09:08:13.769Z,69.40
2023-03-20T09:10:40.755Z,67.20
2023-03-20T09:13:25.636Z,68.70
2023-03-20T09:15:53.197Z,69.20
2023-03-20T09:18:21.007Z,70.30
2023-03-20T09:20:48.574Z,69.20
2023-03-20T09:23:16.121Z,67.60
2023-03-20T09:25:43.166Z,67.20
2023-03-20T09:28:10.133Z,66.20
2023-03-20T09:30:37.190Z,66.40
2023-03-20T09:33:04.167Z,67.60
2023-03-20T09:35:31.298Z,66.10
2023-03-20T09:37:58.036Z,66.00
2023-03-20T09:40:30.670Z,66.20
2023-03-20T09:43:01.479Z,66.30
2023-03-20T09:46:01.177Z,66.20
2023-03-20T09:48:36.002Z,65.40
2023-03-20T09:51:31.830Z,66.40
2023-03-20T09:54:07.596Z,66.70
2023-03-20T09:56:34.367Z,65.60
2023-03-20T09:59:04.202Z,64.50
2023-03-20T10:01:39.938Z,65.80
2023-03-20T10:04:09.658Z,65.70
2023-03-20T10:06:36.759Z,64.70
2023-03-20T10:09:33.660Z,63.90
2023-03-20T10:12:25.733Z,64.30
2023-03-20T10:15:33.326Z,65.00
2023-03-20T10:18:13.983Z,64.00
2023-03-20T10:20:48.949Z,64.70
2023-03-20T10:23:41.246Z,63.70
2023-03-20T10:26:13.702Z,64.10
2023-03-20T10:28:53.972Z,65.10
2023-03-20T10:31:37.794Z,62.40
2023-03-20T10:34:20.800Z,61.60
2023-03-20T10:36:56.326Z,62.30
2023-03-20T10:39:41.966Z,62.90
2023-03-20T10:42:19.724Z,61.20
2023-03-20T10:44:53.795Z,61.20
2023-03-20T10:47:24.579Z,60.00
2023-03-20T10:50:03.011Z,60.00
2023-03-20T10:52:33.682Z,59.70
2023-03-20T10:55:05.490Z,60.30
2023-03-20T10:57:37.180Z,62.00
2023-03-20T11:00:05.251Z,62.20
2023-03-20T11:02:32.490Z,63.60
2023-03-20T11:05:01.783Z,63.90
2023-03-20T11:07:38.310Z,63.30
2023-03-20T11:10:04.931Z,64.10
2023-03-20T11:12:37.497Z,63.50
2023-03-20T11:15:14.092Z,62.80
2023-03-20T11:17:41.509Z,63.10
2023-03-20T11:20:10.950Z,63.30
2023-03-20T11:22:38.701Z,62.00
2023-03-20T11:25:05.652Z,62.80
2023-03-20T11:27:34.569Z,62.30
2023-03-20T11:30:05.651Z,62.20
2023-03-20T11:32:34.464Z,63.00
2023-03-20T11:35:31.485Z,63.10
2023-03-20T11:38:13.772Z,63.70
2023-03-20T11:40:40.599Z,63.90
2023-03-20T11:43:18.603Z,63.10
2023-03-20T11:45:49.065Z,64.30
2023-03-20T11:48:22.050Z,63.60
2023-03-20T11:51:11.062Z,63.40
2023-03-20T11:54:00.525Z,63.70
2023-03-20T11:56:29.518Z,64.10
2023-03-20T11:59:14.628Z,62.70
2023-03-20T12:01:46.978Z,64.30
2023-03-20T12:04:29.764Z,61.40
2023-03-20T12:07:13.135Z,58.10
2023-03-20T12:10:01.346Z,59.90
2023-03-20T12:13:11.025Z,58.10
2023-03-20T12:15:42.459Z,59.00
2023-03-20T12:18:35.757Z,58.10
2023-03-20T12:21:27.545Z,58.10
2023-03-20T12:24:09.734Z,56.90
2023-03-20T12:26:48.119Z,55.60
2023-03-20T12:29:27.561Z,56.90
2023-03-20T12:32:04.940Z,55.20
2023-03-20T12:34:56.833Z,56.20
2023-03-20T12:37:23.859Z,57.50
2023-03-20T12:39:59.872Z,54.60
2023-03-20T12:42:29.400Z,56.60
2023-03-20T12:45:05.958Z,53.10
2023-03-20T12:47:44.321Z,54.70
2023-03-20T12:50:18.308Z,55.20
2023-03-20T12:53:01.599Z,54.80
2023-03-20T12:55:42.992Z,51.80
2023-03-20T12:58:25.724Z,54.90
2023-03-20T13:00:52.591Z,53.40
2023-03-20T13:03:26.809Z,54.30
2023-03-20T13:06:15.812Z,54.70
2023-03-20T13:09:16.728Z,53.30
2023-03-20T13:12:01.406Z,56.20
2023-03-20T13:15:04.374Z,55.40
2023-03-20T13:18:09.130Z,54.40
2023-03-20T13:20:55.498Z,55.70
2023-03-20T13:24:00.315Z,54.30
2023-03-20T13:26:37.633Z,54.60
2023-03-20T13:29:27.555Z,55.70
2023-03-20T13:31:57.151Z,54.20
2023-03-20T13:35:01.678Z,55.20
2023-03-20T13:37:41.535Z,56.00
2023-03-20T13:40:14.179Z,56.50
2023-03-20T13:43:13.488Z,57.90
2023-03-20T13:45:42.179Z,55.10
2023-03-20T13:48:33.514Z,55.80
2023-03-20T13:51:34.335Z,57.50
2023-03-20T13:54:06.857Z,55.10
2023-03-20T13:56:48.903Z,56.80
2023-03-20T13:59:39.816Z,55.60
2023-03-20T14:02:24.921Z,56.20
2023-03-20T14:04:57.646Z,56.90
2023-03-20T14:07:34.006Z,56.10
2023-03-20T14:10:22.603Z,55.10
2023-03-20T14:13:14.395Z,55.10
2023-03-20T14:15:56.154Z,54.60
2023-03-20T14:18:25.199Z,53.70
2023-03-20T14:21:00.972Z,53.20
2023-03-20T14:23:38.235Z,52.40
2023-03-20T14:26:14.209Z,53.20
2023-03-20T14:29:09.803Z,52.50
2023-03-20T14:31:38.365Z,52.90
2023-03-20T14:34:13.524Z,53.00
2023-03-20T14:36:58.571Z,50.40
2023-03-20T14:39:47.125Z,50.80
2023-03-20T14:42:38.652Z,52.00
2023-03-20T14:45:16.558Z,51.40
2023-03-20T14:47:43.439Z,50.40
2023-03-20T14:50:28.136Z,48.50
2023-03-20T14:53:21.644Z,47.90
2023-03-20T14:55:57.649Z,48.30
2023-03-20T14:58:49.124Z,48.30
2023-03-20T15:01:27.752Z,48.30
2023-03-20T15:04:00.302Z,48.50
2023-03-20T15:06:27.957Z,50.20
2023-03-20T15:09:15.552Z,52.70
2023-03-20T15:11:43.584Z,53.40
2023-03-20T15:14:18.532Z,52.40
2023-03-20T15:16:45.409Z,48.00
2023-03-20T15:19:19.644Z,44.40
2023-03-20T15:21:49.195Z,44.70
2023-03-20T15:24:29.889Z,47.20
2023-03-20T15:27:00.482Z,46.80
2023-03-20T15:29:29.560Z,44.50
2023-03-20T15:32:14.123Z,42.60
2023-03-20T15:34:42.681Z,41.20
2023-03-20T15:37:15.044Z,41.20
2023-03-20T15:39:48.090Z,41.00
2023-03-20T15:42:18.274Z,40.40
2023-03-20T15:44:48.011Z,40.00
2023-03-20T15:47:23.142Z,42.20
2023-03-20T15:49:59.979Z,45.40
2023-03-20T15:52:32.063Z,48.40
2023-03-20T15:55:02.770Z,49.60
2023-03-20T15:57:41.442Z,48.10
2023-03-20T16:00:15.359Z,47.60
2023-03-20T16:02:43.991Z,46.60
2023-03-20T16:05:14.333Z,44.90
2023-03-20T16:07:41.833Z,45.40
2023-03-20T16:10:36.395Z,43.60
2023-03-20T16:13:06.504Z,42.10
2023-03-20T16:15:33.925Z,42.00
2023-03-20T16:18:06.553Z,42.00
2023-03-20T16:20:38.670Z,40.20
2023-03-20T16:23:08.321Z,41.10
2023-03-20T16:25:36.467Z,41.80
2023-03-20T16:28:07.067Z,41.70
2023-03-20T16:30:34.963Z,42.10
2023-03-20T16:33:15.718Z,44.00
2023-03-20T16:35:48.971Z,46.30
2023-03-20T16:38:28.064Z,48.70
2023-03-20T16:41:31.681Z,49.90
2023-03-20T16:43:58.497Z,50.40
2023-03-20T16:46:27.468Z,50.90
2023-03-20T16:49:02.176Z,52.80
2023-03-20T16:51:31.756Z,52.90
2023-03-20T16:54:03.581Z,53.40
2023-03-20T16:56:36.905Z,51.90
2023-03-20T16:59:11.364Z,50.30
2023-03-20T17:01:43.100Z,49.10
2023-03-20T17:04:27.734Z,47.20
2023-03-20T17:07:18.405Z,46.70
2023-03-20T17:10:17.166Z,46.70
2023-03-20T17:12:47.464Z,47.10
2023-03-20T17:15:16.545Z,48.20
2023-03-20T17:17:44.040Z,48.10
2023-03-20T17:20:24.263Z,48.50
2023-03-20T17:22:51.140Z,50.70
2023-03-20T17:25:18.025Z,52.60
2023-03-20T17:27:45.241Z,53.70
2023-03-20T17:30:17.530Z,54.40
2023-03-20T17:32:44.304Z,55.10
2023-03-20T17:35:11.424Z,55.90
2023-03-20T17:37:38.670Z,56.90
2023-03-20T17:40:06.097Z,57.80
2023-03-20T17:42:33.100Z,58.40
2023-03-20T17:45:03.317Z,59.00
2023-03-20T17:47:30.818Z,59.60
2023-03-20T17:49:58.028Z,59.30
2023-03-20T17:52:27.346Z,58.70
2023-03-20T17:54:54.915Z,59.20
2023-03-20T17:57:34.266Z,59.30
2023-03-20T18:00:01.830Z,59.20
2023-03-20T18:02:31.086Z,58.80
2023-03-20T18:04:57.762Z,59.30
2023-03-20T18:07:24.536Z,59.90
2023-03-20T18:09:51.511Z,60.20
2023-03-20T18:12:19.144Z,59.90
2023-03-20T18:14:46.530Z,59.80
2023-03-20T18:17:16.991Z,60.10
2023-03-20T18:19:44.663Z,61.00
2023-03-20T18:22:12.424Z,62.70
2023-03-20T18:24:45.323Z,63.70
2023-03-20T18:27:12.215Z,63.70
2023-03-20T18:29:39.005Z,62.90
2023-03-20T18:32:05.672Z,62.40
2023-03-20T18:34:33.167Z,62.20
2023-03-20T18:37:00.023Z,61.80
2023-03-20T18:39:27.228Z,61.90
2023-03-20T18:41:54.104Z,61.70
2023-03-20T18:44:20.921Z,62.90
2023-03-20T18:46:47.656Z,63.20
2023-03-20T18:49:18.009Z,63.00
2023-03-20T18:51:45.066Z,64.10
2023-03-20T18:54:11.791Z,64.30
2023-03-20T18:56:38.724Z,64.20
2023-03-20T18:59:08.046Z,64.60
2023-03-20T19:01:35.906Z,64.50
2023-03-20T19:04:03.195Z,65.00
2023-03-20T19:06:31.984Z,65.10
2023-03-20T19:08:58.786Z,65.10
2023-03-20T19:11:25.530Z,65.00
2023-03-20T19:13:53.798Z,65.00
2023-03-20T19:16:41.268Z,65.30
2023-03-20T19:19:10.680Z,65.10
2023-03-20T19:21:37.383Z,65.30
2023-03-20T19:24:05.980Z,64.70
2023-03-20T19:26:34.700Z,65.00
2023-03-20T19:29:08.319Z,65.70
2023-03-20T19:31:35.762Z,66.70
2023-03-20T19:34:03.109Z,68.50
2023-03-20T19:36:35.600Z,69.30
2023-03-20T19:39:04.620Z,67.80
2023-03-20T19:41:32.434Z,67.40
2023-03-20T19:43:59.675Z,66.60
2023-03-20T19:46:43.206Z,67.00
2023-03-20T19:49:20.269Z,69.20
2023-03-20T19:51:48.357Z,70.20
2023-03-20T19:54:15.568Z,70.10
2023-03-20T19:56:42.259Z,69.40
2023-03-20T19:59:08.949Z,70.30
2023-03-20T20:01:36.183Z,70.10
2023-03-20T20:04:03.963Z,70.70
2023-03-20T20:06:32.790Z,69.60
2023-03-20T20:09:00.950Z,69.10
2023-03-20T20:11:28.215Z,68.30
2023-03-20T20:14:06.275Z,68.40
2023-03-20T20:16:39.353Z,68.00
2023-03-20T20:19:06.325Z,68.00
2023-03-20T20:24:20.215Z,68.10
2023-03-20T20:27:11.686Z,67.90
2023-03-20T20:29:38.657Z,68.20
2023-03-20T20:32:05.547Z,67.80
2023-03-20T20:40:06.461Z,67.60
2023-03-20T20:42:33.110Z,67.30
2023-03-20T20:44:59.774Z,68.30
2023-03-20T20:47:26.505Z,70.00
2023-03-20T20:49:53.872Z,69.90
2023-03-20T20:52:20.686Z,69.90
2023-03-20T20:54:48.159Z,69.40
2023-03-20T20:57:15.476Z,69.90
2023-03-20T20:59:42.199Z,71.60
2023-03-20T21:02:12.890Z,71.90
2023-03-20T21:04:41.126Z,71.60
2023-03-20T21:07:11.942Z,71.60
2023-03-20T21:09:39.960Z,70.80
2023-03-20T21:12:08.444Z,70.90
2023-03-20T21:14:35.386Z,70.30
2023-03-20T21:17:02.557Z,70.40
2023-03-20T21:19:33.011Z,70.40
2023-03-20T21:21:59.668Z,71.10
2023-03-20T21:24:33.077Z,71.20
2023-03-20T21:27:10.869Z,70.80
2023-03-20T21:29:39.036Z,71.20
2023-03-20T21:32:06.294Z,72.20
2023-03-20T21:34:32.994Z,72.10
2023-03-20T21:37:02.924Z,72.20
2023-03-20T21:39:51.022Z,71.50
2023-03-20T21:42:18.831Z,71.00
2023-03-20T21:45:34.565Z,70.90
2023-03-20T21:48:18.921Z,70.70
2023-03-20T21:56:41.891Z,70.70
2023-03-20T21:59:26.935Z,70.70
2023-03-20T22:01:58.747Z,71.70
2023-03-20T22:13:23.203Z,70.90
2023-03-20T22:16:03.468Z,70.90
2023-03-20T22:19:18.042Z,70.80
2023-03-20T22:21:37.081Z,71.10
2023-03-20T22:24:31.286Z,71.30
2023-03-20T22:27:31.981Z,71.40
2023-03-20T22:38:29.344Z,70.70
2023-03-20T22:44:30.526Z,70.20
2023-03-20T22:46:16.709Z,70.70
2023-03-20T22:48:44.228Z,70.90
2023-03-20T22:51:11.038Z,70.90
2023-03-20T22:53:37.773Z,71.30
2023-03-20T22:56:04.956Z,71.00
2023-03-20T22:58:31.605Z,71.10
2023-03-20T23:00:58.392Z,70.80
2023-03-20T23:03:40.285Z,71.00
2023-03-20T23:06:19.460Z,71.00
2023-03-20T23:08:53.851Z,70.70
2023-03-20T23:11:26.747Z,70.20
2023-03-20T23:13:53.405Z,70.50
2023-03-20T23:16:20.565Z,70.80
2023-03-20T23:18:47.318Z,70.80
2023-03-20T23:21:14.041Z,71.40
2023-03-20T23:23:40.700Z,71.00
2023-03-20T23:26:15.773Z,71.70
2023-03-20T23:28:44.440Z,71.80
2023-03-20T23:31:23.411Z,70.60
2023-03-20T23:33:53.516Z,70.50
2023-03-20T23:36:34.910Z,71.30
2023-03-20T23:39:02.882Z,70.60
2023-03-20T23:41:57.342Z,71.90
2023-03-20T23:44:16.234Z,72.30
2023-03-20T23:46:42.896Z,72.70
2023-03-20T23:49:09.595Z,72.90
2023-03-20T23:51:36.315Z,73.30
2023-03-20T23:54:03.048Z,73.30
2023-03-20T23:56:29.725Z,72.70
2023-03-20T23:59:03.173Z,72.80
